sensor_id;sensor_type;location;lat;lon;timestamp;P1;durP1;ratioP1;P2;durP2;ratioP2
73321;SDS011;61549;37.044;22.128;2023-03-21T00:01:21;6.70;;;4.85;;
73321;SDS011;61549;37.044;22.128;2023-03-21T00:03:47;7.43;;;5.22;;
73321;SDS011;61549;37.044;22.128;2023-03-21T00:06:15;6.78;;;4.82;;
73321;SDS011;61549;37.044;22.128;2023-03-21T00:08:41;8.02;;;5.63;;
73321;SDS011;61549;37.044;22.128;2023-03-21T00:11:09;5.90;;;4.85;;
73321;SDS011;61549;37.044;22.128;2023-03-21T00:13:36;8.38;;;4.93;;
73321;SDS011;61549;37.044;22.128;2023-03-21T00:16:03;6.43;;;4.55;;
73321;SDS011;61549;37.044;22.128;2023-03-21T00:18:29;5.95;;;4.50;;
73321;SDS011;61549;37.044;22.128;2023-03-21T00:20:59;5.65;;;4.00;;
73321;SDS011;61549;37.044;22.128;2023-03-21T00:23:26;6.95;;;4.60;;
73321;SDS011;61549;37.044;22.128;2023-03-21T00:25:53;6.65;;;4.68;;
73321;SDS011;61549;37.044;22.128;2023-03-21T00:28:19;7.45;;;4.90;;
73321;SDS011;61549;37.044;22.128;2023-03-21T00:30:45;7.28;;;4.88;;
73321;SDS011;61549;37.044;22.128;2023-03-21T00:33:11;6.85;;;4.50;;
73321;SDS011;61549;37.044;22.128;2023-03-21T00:35:41;7.32;;;4.35;;
73321;SDS011;61549;37.044;22.128;2023-03-21T00:38:09;7.55;;;4.68;;
73321;SDS011;61549;37.044;22.128;2023-03-21T00:40:35;6.75;;;3.88;;
73321;SDS011;61549;37.044;22.128;2023-03-21T00:43:01;4.85;;;3.58;;
73321;SDS011;61549;37.044;22.128;2023-03-21T00:45:26;5.10;;;3.55;;
73321;SDS011;61549;37.044;22.128;2023-03-21T00:47:52;5.68;;;3.40;;
73321;SDS011;61549;37.044;22.128;2023-03-21T00:50:18;4.88;;;3.60;;
73321;SDS011;61549;37.044;22.128;2023-03-21T00:52:44;6.60;;;3.70;;
73321;SDS011;61549;37.044;22.128;2023-03-21T00:55:13;5.32;;;3.92;;
73321;SDS011;61549;37.044;22.128;2023-03-21T00:57:40;4.55;;;3.35;;
73321;SDS011;61549;37.044;22.128;2023-03-21T01:00:08;6.40;;;3.60;;
73321;SDS011;61549;37.044;22.128;2023-03-21T01:02:37;3.90;;;3.33;;
73321;SDS011;61549;37.044;22.128;2023-03-21T01:05:06;5.80;;;3.75;;
73321;SDS011;61549;37.044;22.128;2023-03-21T01:07:33;4.68;;;3.60;;
73321;SDS011;61549;37.044;22.128;2023-03-21T01:09:59;5.15;;;3.70;;
73321;SDS011;61549;37.044;22.128;2023-03-21T01:12:25;5.72;;;4.25;;
73321;SDS011;61549;37.044;22.128;2023-03-21T01:14:51;5.97;;;4.30;;
73321;SDS011;61549;37.044;22.128;2023-03-21T01:17:17;7.07;;;4.75;;
73321;SDS011;61549;37.044;22.128;2023-03-21T01:19:43;6.40;;;4.60;;
73321;SDS011;61549;37.044;22.128;2023-03-21T01:22:09;7.55;;;4.75;;
73321;SDS011;61549;37.044;22.128;2023-03-21T01:24:35;7.03;;;5.30;;
73321;SDS011;61549;37.044;22.128;2023-03-21T01:27:02;7.10;;;4.85;;
73321;SDS011;61549;37.044;22.128;2023-03-21T01:29:28;7.93;;;5.35;;
73321;SDS011;61549;37.044;22.128;2023-03-21T01:31:53;8.02;;;5.90;;
73321;SDS011;61549;37.044;22.128;2023-03-21T01:34:20;7.28;;;5.57;;
73321;SDS011;61549;37.044;22.128;2023-03-21T01:36:45;7.75;;;5.30;;
73321;SDS011;61549;37.044;22.128;2023-03-21T01:39:11;8.57;;;5.90;;
73321;SDS011;61549;37.044;22.128;2023-03-21T01:41:38;10.77;;;7.35;;
73321;SDS011;61549;37.044;22.128;2023-03-21T01:44:06;6.80;;;5.38;;
73321;SDS011;61549;37.044;22.128;2023-03-21T01:51:57;13.18;;;9.65;;
73321;SDS011;61549;37.044;22.128;2023-03-21T01:54:27;10.23;;;7.32;;
73321;SDS011;61549;37.044;22.128;2023-03-21T01:56:57;13.02;;;7.88;;
73321;SDS011;61549;37.044;22.128;2023-03-21T01:59:30;13.95;;;7.70;;
73321;SDS011;61549;37.044;22.128;2023-03-21T02:02:08;13.70;;;8.20;;
73321;SDS011;61549;37.044;22.128;2023-03-21T02:04:38;8.70;;;5.88;;
73321;SDS011;61549;37.044;22.128;2023-03-21T02:07:11;6.78;;;5.20;;
73321;SDS011;61549;37.044;22.128;2023-03-21T02:09:46;7.78;;;5.13;;
73321;SDS011;61549;37.044;22.128;2023-03-21T02:12:14;7.65;;;5.38;;
73321;SDS011;61549;37.044;22.128;2023-03-21T02:14:40;6.13;;;4.65;;
73321;SDS011;61549;37.044;22.128;2023-03-21T02:28:39;6.82;;;4.65;;
73321;SDS011;61549;37.044;22.128;2023-03-21T02:34:22;5.55;;;4.40;;
73321;SDS011;61549;37.044;22.128;2023-03-21T02:37:04;5.63;;;4.43;;
73321;SDS011;61549;37.044;22.128;2023-03-21T02:40:02;5.35;;;3.95;;
73321;SDS011;61549;37.044;22.128;2023-03-21T02:42:40;4.72;;;3.83;;
73321;SDS011;61549;37.044;22.128;2023-03-21T02:45:08;5.72;;;4.20;;
73321;SDS011;61549;37.044;22.128;2023-03-21T02:47:59;5.82;;;4.50;;
73321;SDS011;61549;37.044;22.128;2023-03-21T02:50:33;6.75;;;4.90;;
73321;SDS011;61549;37.044;22.128;2023-03-21T02:53:05;7.47;;;5.15;;
73321;SDS011;61549;37.044;22.128;2023-03-21T02:55:32;7.05;;;4.68;;
73321;SDS011;61549;37.044;22.128;2023-03-21T02:57:59;5.80;;;4.60;;
73321;SDS011;61549;37.044;22.128;2023-03-21T03:00:28;6.95;;;4.90;;
73321;SDS011;61549;37.044;22.128;2023-03-21T03:02:56;7.20;;;4.63;;
73321;SDS011;61549;37.044;22.128;2023-03-21T03:05:24;8.32;;;4.82;;
73321;SDS011;61549;37.044;22.128;2023-03-21T03:13:56;8.45;;;6.32;;
73321;SDS011;61549;37.044;22.128;2023-03-21T03:16:47;10.15;;;6.13;;
73321;SDS011;61549;37.044;22.128;2023-03-21T03:19:53;9.55;;;6.43;;
73321;SDS011;61549;37.044;22.128;2023-03-21T03:25:30;10.07;;;5.78;;
73321;SDS011;61549;37.044;22.128;2023-03-21T03:28:05;10.27;;;5.90;;
73321;SDS011;61549;37.044;22.128;2023-03-21T03:30:33;13.38;;;6.70;;
73321;SDS011;61549;37.044;22.128;2023-03-21T03:33:01;9.07;;;5.88;;
73321;SDS011;61549;37.044;22.128;2023-03-21T03:35:30;7.85;;;5.72;;
73321;SDS011;61549;37.044;22.128;2023-03-21T03:37:57;9.52;;;6.00;;
73321;SDS011;61549;37.044;22.128;2023-03-21T03:40:27;7.10;;;5.53;;
73321;SDS011;61549;37.044;22.128;2023-03-21T03:43:28;8.13;;;5.82;;
73321;SDS011;61549;37.044;22.128;2023-03-21T03:46:09;9.20;;;5.63;;
73321;SDS011;61549;37.044;22.128;2023-03-21T03:48:45;9.27;;;5.90;;
73321;SDS011;61549;37.044;22.128;2023-03-21T03:51:25;7.43;;;5.30;;
73321;SDS011;61549;37.044;22.128;2023-03-21T03:53:56;7.60;;;5.22;;
73321;SDS011;61549;37.044;22.128;2023-03-21T03:56:26;9.80;;;5.47;;
73321;SDS011;61549;37.044;22.128;2023-03-21T03:58:52;8.43;;;4.90;;
73321;SDS011;61549;37.044;22.128;2023-03-21T04:01:20;6.95;;;4.80;;
73321;SDS011;61549;37.044;22.128;2023-03-21T04:03:46;6.32;;;4.75;;
73321;SDS011;61549;37.044;22.128;2023-03-21T04:06:15;6.75;;;4.78;;
73321;SDS011;61549;37.044;22.128;2023-03-21T04:08:42;6.60;;;4.95;;
73321;SDS011;61549;37.044;22.128;2023-03-21T04:11:09;7.68;;;5.65;;
73321;SDS011;61549;37.044;22.128;2023-03-21T04:13:37;8.50;;;5.43;;
73321;SDS011;61549;37.044;22.128;2023-03-21T04:16:03;7.00;;;5.32;;
73321;SDS011;61549;37.044;22.128;2023-03-21T04:18:29;7.28;;;5.05;;
73321;SDS011;61549;37.044;22.128;2023-03-21T04:20:56;6.35;;;4.93;;
73321;SDS011;61549;37.044;22.128;2023-03-21T04:23:23;8.57;;;5.47;;
73321;SDS011;61549;37.044;22.128;2023-03-21T04:25:49;7.28;;;5.05;;
73321;SDS011;61549;37.044;22.128;2023-03-21T04:28:18;7.03;;;5.30;;
73321;SDS011;61549;37.044;22.128;2023-03-21T04:30:46;7.68;;;5.43;;
73321;SDS011;61549;37.044;22.128;2023-03-21T04:33:13;8.93;;;4.93;;
73321;SDS011;61549;37.044;22.128;2023-03-21T04:35:39;7.57;;;5.50;;
73321;SDS011;61549;37.044;22.128;2023-03-21T04:38:06;8.25;;;5.35;;
73321;SDS011;61549;37.044;22.128;2023-03-21T04:40:32;7.60;;;5.00;;
73321;SDS011;61549;37.044;22.128;2023-03-21T04:42:58;7.40;;;5.10;;
73321;SDS011;61549;37.044;22.128;2023-03-21T04:45:25;10.02;;;5.30;;
73321;SDS011;61549;37.044;22.128;2023-03-21T04:47:51;10.75;;;6.90;;
73321;SDS011;61549;37.044;22.128;2023-03-21T04:50:17;26.40;;;13.77;;
73321;SDS011;61549;37.044;22.128;2023-03-21T04:52:43;64.50;;;29.50;;
73321;SDS011;61549;37.044;22.128;2023-03-21T04:55:08;48.67;;;22.30;;
73321;SDS011;61549;37.044;22.128;2023-03-21T04:57:38;35.95;;;17.60;;
73321;SDS011;61549;37.044;22.128;2023-03-21T05:00:05;12.95;;;7.53;;
73321;SDS011;61549;37.044;22.128;2023-03-21T05:02:35;11.38;;;7.22;;
73321;SDS011;61549;37.044;22.128;2023-03-21T05:05:01;16.10;;;10.13;;
73321;SDS011;61549;37.044;22.128;2023-03-21T05:07:27;12.43;;;8.27;;
73321;SDS011;61549;37.044;22.128;2023-03-21T05:09:55;13.15;;;7.22;;
73321;SDS011;61549;37.044;22.128;2023-03-21T05:12:33;10.90;;;6.85;;
73321;SDS011;61549;37.044;22.128;2023-03-21T05:14:59;9.90;;;5.82;;
73321;SDS011;61549;37.044;22.128;2023-03-21T05:17:25;9.32;;;6.35;;
73321;SDS011;61549;37.044;22.128;2023-03-21T05:19:52;8.90;;;6.70;;
73321;SDS011;61549;37.044;22.128;2023-03-21T05:22:20;8.60;;;6.88;;
73321;SDS011;61549;37.044;22.128;2023-03-21T05:24:48;10.02;;;7.13;;
73321;SDS011;61549;37.044;22.128;2023-03-21T05:27:18;11.00;;;8.50;;
73321;SDS011;61549;37.044;22.128;2023-03-21T05:30:00;11.23;;;9.05;;
73321;SDS011;61549;37.044;22.128;2023-03-21T05:32:27;13.43;;;9.05;;
73321;SDS011;61549;37.044;22.128;2023-03-21T05:34:53;11.68;;;7.90;;
73321;SDS011;61549;37.044;22.128;2023-03-21T05:37:20;9.73;;;7.60;;
73321;SDS011;61549;37.044;22.128;2023-03-21T05:39:46;11.02;;;7.47;;
73321;SDS011;61549;37.044;22.128;2023-03-21T05:42:11;9.23;;;5.95;;
73321;SDS011;61549;37.044;22.128;2023-03-21T05:44:37;7.65;;;5.00;;
73321;SDS011;61549;37.044;22.128;2023-03-21T05:47:04;7.47;;;5.30;;
73321;SDS011;61549;37.044;22.128;2023-03-21T05:49:30;8.90;;;5.95;;
73321;SDS011;61549;37.044;22.128;2023-03-21T05:51:56;7.95;;;5.50;;
73321;SDS011;61549;37.044;22.128;2023-03-21T05:54:22;8.57;;;6.15;;
73321;SDS011;61549;37.044;22.128;2023-03-21T05:56:48;10.35;;;6.63;;
73321;SDS011;61549;37.044;22.128;2023-03-21T05:59:14;7.93;;;6.10;;
73321;SDS011;61549;37.044;22.128;2023-03-21T06:01:40;9.85;;;6.25;;
73321;SDS011;61549;37.044;22.128;2023-03-21T06:04:06;7.25;;;5.80;;
73321;SDS011;61549;37.044;22.128;2023-03-21T06:06:32;8.70;;;5.53;;
73321;SDS011;61549;37.044;22.128;2023-03-21T06:08:58;7.70;;;5.43;;
73321;SDS011;61549;37.044;22.128;2023-03-21T06:11:26;8.75;;;5.97;;
73321;SDS011;61549;37.044;22.128;2023-03-21T06:13:56;20.90;;;13.25;;
73321;SDS011;61549;37.044;22.128;2023-03-21T06:16:22;25.55;;;16.63;;
73321;SDS011;61549;37.044;22.128;2023-03-21T06:18:48;27.13;;;17.10;;
73321;SDS011;61549;37.044;22.128;2023-03-21T06:21:14;21.67;;;14.93;;
73321;SDS011;61549;37.044;22.128;2023-03-21T06:23:40;22.00;;;14.18;;
73321;SDS011;61549;37.044;22.128;2023-03-21T06:26:06;22.23;;;14.18;;
73321;SDS011;61549;37.044;22.128;2023-03-21T06:28:32;18.75;;;12.55;;
73321;SDS011;61549;37.044;22.128;2023-03-21T06:30:58;18.30;;;12.85;;
73321;SDS011;61549;37.044;22.128;2023-03-21T06:33:24;20.23;;;13.20;;
73321;SDS011;61549;37.044;22.128;2023-03-21T06:35:54;24.05;;;15.75;;
73321;SDS011;61549;37.044;22.128;2023-03-21T06:38:21;21.95;;;15.10;;
73321;SDS011;61549;37.044;22.128;2023-03-21T06:40:47;30.45;;;19.55;;
73321;SDS011;61549;37.044;22.128;2023-03-21T06:43:13;29.60;;;19.30;;
73321;SDS011;61549;37.044;22.128;2023-03-21T06:45:40;25.88;;;17.90;;
73321;SDS011;61549;37.044;22.128;2023-03-21T06:48:06;28.13;;;18.00;;
73321;SDS011;61549;37.044;22.128;2023-03-21T06:50:32;25.70;;;16.80;;
73321;SDS011;61549;37.044;22.128;2023-03-21T06:52:58;23.52;;;14.65;;
73321;SDS011;61549;37.044;22.128;2023-03-21T06:55:25;17.60;;;12.02;;
73321;SDS011;61549;37.044;22.128;2023-03-21T06:57:53;20.00;;;12.82;;
73321;SDS011;61549;37.044;22.128;2023-03-21T07:00:20;20.23;;;12.85;;
73321;SDS011;61549;37.044;22.128;2023-03-21T07:02:46;19.15;;;12.13;;
73321;SDS011;61549;37.044;22.128;2023-03-21T07:05:13;20.33;;;12.27;;
73321;SDS011;61549;37.044;22.128;2023-03-21T07:07:39;17.70;;;12.15;;
73321;SDS011;61549;37.044;22.128;2023-03-21T07:10:05;15.82;;;11.55;;
73321;SDS011;61549;37.044;22.128;2023-03-21T07:12:32;61.38;;;36.85;;
73321;SDS011;61549;37.044;22.128;2023-03-21T07:15:00;21.55;;;13.65;;
73321;SDS011;61549;37.044;22.128;2023-03-21T07:17:27;19.30;;;12.98;;
73321;SDS011;61549;37.044;22.128;2023-03-21T07:19:53;25.63;;;20.92;;
73321;SDS011;61549;37.044;22.128;2023-03-21T07:22:18;25.08;;;17.70;;
73321;SDS011;61549;37.044;22.128;2023-03-21T07:24:44;23.63;;;15.70;;
73321;SDS011;61549;37.044;22.128;2023-03-21T07:27:12;23.60;;;17.75;;
73321;SDS011;61549;37.044;22.128;2023-03-21T07:29:42;22.02;;;16.17;;
73321;SDS011;61549;37.044;22.128;2023-03-21T07:32:11;23.90;;;16.40;;
73321;SDS011;61549;37.044;22.128;2023-03-21T07:34:37;25.05;;;17.55;;
73321;SDS011;61549;37.044;22.128;2023-03-21T07:37:03;24.15;;;17.85;;
73321;SDS011;61549;37.044;22.128;2023-03-21T07:39:31;26.40;;;19.80;;
73321;SDS011;61549;37.044;22.128;2023-03-21T07:41:58;20.40;;;14.73;;
73321;SDS011;61549;37.044;22.128;2023-03-21T07:44:25;17.83;;;11.82;;
73321;SDS011;61549;37.044;22.128;2023-03-21T07:46:50;19.17;;;11.90;;
73321;SDS011;61549;37.044;22.128;2023-03-21T07:49:16;20.38;;;12.35;;
73321;SDS011;61549;37.044;22.128;2023-03-21T07:51:42;18.95;;;12.43;;
73321;SDS011;61549;37.044;22.128;2023-03-21T07:54:08;31.92;;;20.80;;
73321;SDS011;61549;37.044;22.128;2023-03-21T07:56:34;33.42;;;20.88;;
73321;SDS011;61549;37.044;22.128;2023-03-21T07:59:00;27.08;;;19.60;;
73321;SDS011;61549;37.044;22.128;2023-03-21T08:01:26;28.90;;;19.73;;
73321;SDS011;61549;37.044;22.128;2023-03-21T08:03:52;26.83;;;17.55;;
73321;SDS011;61549;37.044;22.128;2023-03-21T08:06:18;25.10;;;16.63;;
73321;SDS011;61549;37.044;22.128;2023-03-21T08:08:45;24.40;;;15.35;;
73321;SDS011;61549;37.044;22.128;2023-03-21T08:11:30;31.40;;;21.35;;
73321;SDS011;61549;37.044;22.128;2023-03-21T08:13:56;41.75;;;27.77;;
73321;SDS011;61549;37.044;22.128;2023-03-21T08:16:22;61.60;;;36.67;;
73321;SDS011;61549;37.044;22.128;2023-03-21T08:18:48;47.92;;;31.75;;
73321;SDS011;61549;37.044;22.128;2023-03-21T08:21:14;47.50;;;30.20;;
73321;SDS011;61549;37.044;22.128;2023-03-21T08:23:40;37.15;;;25.70;;
73321;SDS011;61549;37.044;22.128;2023-03-21T08:26:06;34.50;;;22.92;;
73321;SDS011;61549;37.044;22.128;2023-03-21T08:28:33;32.80;;;22.33;;
73321;SDS011;61549;37.044;22.128;2023-03-21T08:31:05;34.50;;;22.50;;
73321;SDS011;61549;37.044;22.128;2023-03-21T08:33:32;35.38;;;24.23;;
73321;SDS011;61549;37.044;22.128;2023-03-21T08:36:00;36.75;;;24.88;;
73321;SDS011;61549;37.044;22.128;2023-03-21T08:38:26;35.75;;;23.85;;
73321;SDS011;61549;37.044;22.128;2023-03-21T08:40:54;33.42;;;21.48;;
73321;SDS011;61549;37.044;22.128;2023-03-21T08:43:21;33.72;;;21.40;;
73321;SDS011;61549;37.044;22.128;2023-03-21T08:45:47;30.90;;;20.27;;
73321;SDS011;61549;37.044;22.128;2023-03-21T08:48:13;31.83;;;21.45;;
73321;SDS011;61549;37.044;22.128;2023-03-21T08:50:39;32.15;;;20.95;;
73321;SDS011;61549;37.044;22.128;2023-03-21T08:53:05;34.50;;;22.80;;
73321;SDS011;61549;37.044;22.128;2023-03-21T08:55:31;39.35;;;26.33;;
73321;SDS011;61549;37.044;22.128;2023-03-21T08:57:58;40.08;;;26.45;;
73321;SDS011;61549;37.044;22.128;2023-03-21T09:00:25;48.08;;;32.67;;
73321;SDS011;61549;37.044;22.128;2023-03-21T09:02:51;41.40;;;28.63;;
73321;SDS011;61549;37.044;22.128;2023-03-21T09:05:19;41.28;;;31.00;;
73321;SDS011;61549;37.044;22.128;2023-03-21T09:07:45;36.47;;;27.75;;
73321;SDS011;61549;37.044;22.128;2023-03-21T09:10:17;69.13;;;45.72;;
73321;SDS011;61549;37.044;22.128;2023-03-21T09:12:44;48.45;;;33.33;;
73321;SDS011;61549;37.044;22.128;2023-03-21T09:15:11;42.50;;;29.23;;
73321;SDS011;61549;37.044;22.128;2023-03-21T09:17:40;34.58;;;25.02;;
73321;SDS011;61549;37.044;22.128;2023-03-21T09:20:13;28.75;;;19.50;;
73321;SDS011;61549;37.044;22.128;2023-03-21T09:22:47;21.60;;;15.88;;
73321;SDS011;61549;37.044;22.128;2023-03-21T09:25:15;17.33;;;12.07;;
73321;SDS011;61549;37.044;22.128;2023-03-21T09:27:41;13.23;;;9.93;;
73321;SDS011;61549;37.044;22.128;2023-03-21T09:30:09;14.13;;;10.48;;
73321;SDS011;61549;37.044;22.128;2023-03-21T09:32:37;17.15;;;11.57;;
73321;SDS011;61549;37.044;22.128;2023-03-21T09:35:04;16.27;;;11.10;;
73321;SDS011;61549;37.044;22.128;2023-03-21T09:37:31;15.38;;;10.40;;
73321;SDS011;61549;37.044;22.128;2023-03-21T09:39:58;10.00;;;8.05;;
73321;SDS011;61549;37.044;22.128;2023-03-21T09:47:55;6.50;;;5.03;;
73321;SDS011;61549;37.044;22.128;2023-03-21T09:50:26;6.82;;;5.07;;
73321;SDS011;61549;37.044;22.128;2023-03-21T09:53:19;10.55;;;7.95;;
73321;SDS011;61549;37.044;22.128;2023-03-21T09:55:49;15.05;;;10.95;;
73321;SDS011;61549;37.044;22.128;2023-03-21T09:58:27;17.50;;;12.60;;
73321;SDS011;61549;37.044;22.128;2023-03-21T10:03:46;15.30;;;11.27;;
73321;SDS011;61549;37.044;22.128;2023-03-21T10:06:14;15.32;;;10.85;;
73321;SDS011;61549;37.044;22.128;2023-03-21T10:08:42;13.98;;;10.38;;
73321;SDS011;61549;37.044;22.128;2023-03-21T10:11:16;12.48;;;9.38;;
73321;SDS011;61549;37.044;22.128;2023-03-21T10:16:29;14.85;;;10.23;;
73321;SDS011;61549;37.044;22.128;2023-03-21T10:19:02;14.02;;;10.02;;
73321;SDS011;61549;37.044;22.128;2023-03-21T10:21:33;17.33;;;12.68;;
73321;SDS011;61549;37.044;22.128;2023-03-21T10:24:07;18.95;;;13.50;;
73321;SDS011;61549;37.044;22.128;2023-03-21T10:26:36;21.17;;;13.43;;
73321;SDS011;61549;37.044;22.128;2023-03-21T10:29:04;16.13;;;12.45;;
73321;SDS011;61549;37.044;22.128;2023-03-21T10:31:30;16.23;;;12.43;;
73321;SDS011;61549;37.044;22.128;2023-03-21T10:34:01;15.68;;;11.82;;
73321;SDS011;61549;37.044;22.128;2023-03-21T10:36:31;15.98;;;12.00;;
73321;SDS011;61549;37.044;22.128;2023-03-21T10:41:26;15.75;;;12.23;;
73321;SDS011;61549;37.044;22.128;2023-03-21T10:44:08;18.65;;;13.00;;
73321;SDS011;61549;37.044;22.128;2023-03-21T10:46:42;18.73;;;13.13;;
73321;SDS011;61549;37.044;22.128;2023-03-21T10:49:21;18.90;;;13.57;;
73321;SDS011;61549;37.044;22.128;2023-03-21T10:51:51;18.77;;;13.45;;
73321;SDS011;61549;37.044;22.128;2023-03-21T10:54:28;19.17;;;13.65;;
73321;SDS011;61549;37.044;22.128;2023-03-21T10:56:56;17.52;;;13.38;;
73321;SDS011;61549;37.044;22.128;2023-03-21T10:59:27;16.30;;;12.23;;
73321;SDS011;61549;37.044;22.128;2023-03-21T11:01:59;18.02;;;13.02;;
73321;SDS011;61549;37.044;22.128;2023-03-21T11:04:29;16.42;;;12.82;;
73321;SDS011;61549;37.044;22.128;2023-03-21T11:07:04;16.48;;;12.30;;
73321;SDS011;61549;37.044;22.128;2023-03-21T11:12:41;14.80;;;10.48;;
73321;SDS011;61549;37.044;22.128;2023-03-21T11:15:26;14.70;;;10.25;;
73321;SDS011;61549;37.044;22.128;2023-03-21T11:18:13;14.13;;;10.15;;
73321;SDS011;61549;37.044;22.128;2023-03-21T11:20:48;13.02;;;9.85;;
73321;SDS011;61549;37.044;22.128;2023-03-21T11:23:26;14.13;;;10.02;;
73321;SDS011;61549;37.044;22.128;2023-03-21T11:25:55;34.60;;;27.80;;
73321;SDS011;61549;37.044;22.128;2023-03-21T11:28:25;37.90;;;26.42;;
73321;SDS011;61549;37.044;22.128;2023-03-21T11:30:58;19.48;;;13.25;;
73321;SDS011;61549;37.044;22.128;2023-03-21T11:33:27;19.73;;;13.52;;
73321;SDS011;61549;37.044;22.128;2023-03-21T11:39:03;15.65;;;11.00;;
73321;SDS011;61549;37.044;22.128;2023-03-21T11:41:51;16.05;;;11.75;;
73321;SDS011;61549;37.044;22.128;2023-03-21T11:44:25;17.02;;;11.88;;
73321;SDS011;61549;37.044;22.128;2023-03-21T11:46:54;14.05;;;11.02;;
73321;SDS011;61549;37.044;22.128;2023-03-21T11:49:20;12.18;;;9.35;;
73321;SDS011;61549;37.044;22.128;2023-03-21T11:51:53;12.13;;;9.13;;
73321;SDS011;61549;37.044;22.128;2023-03-21T11:57:43;15.57;;;10.80;;
73321;SDS011;61549;37.044;22.128;2023-03-21T12:00:40;14.77;;;10.45;;
73321;SDS011;61549;37.044;22.128;2023-03-21T12:06:00;19.35;;;14.10;;
73321;SDS011;61549;37.044;22.128;2023-03-21T12:22:00;10.70;;;7.57;;
73321;SDS011;61549;37.044;22.128;2023-03-21T12:24:37;10.35;;;7.90;;
73321;SDS011;61549;37.044;22.128;2023-03-21T12:27:14;10.63;;;7.60;;
73321;SDS011;61549;37.044;22.128;2023-03-21T12:43:49;10.38;;;7.70;;
73321;SDS011;61549;37.044;22.128;2023-03-21T12:49:25;10.43;;;7.25;;
73321;SDS011;61549;37.044;22.128;2023-03-21T12:52:12;11.90;;;8.15;;
73321;SDS011;61549;37.044;22.128;2023-03-21T12:55:00;19.83;;;13.73;;
73321;SDS011;61549;37.044;22.128;2023-03-21T13:00:37;18.17;;;13.23;;
73321;SDS011;61549;37.044;22.128;2023-03-21T13:03:18;20.33;;;15.05;;
73321;SDS011;61549;37.044;22.128;2023-03-21T13:09:04;16.27;;;11.32;;
73321;SDS011;61549;37.044;22.128;2023-03-21T13:11:41;13.75;;;10.52;;
73321;SDS011;61549;37.044;22.128;2023-03-21T13:14:14;14.10;;;11.07;;
73321;SDS011;61549;37.044;22.128;2023-03-21T13:17:04;16.23;;;11.07;;
73321;SDS011;61549;37.044;22.128;2023-03-21T13:19:46;15.38;;;11.48;;
73321;SDS011;61549;37.044;22.128;2023-03-21T13:22:36;18.15;;;12.20;;
73321;SDS011;61549;37.044;22.128;2023-03-21T13:27:41;14.48;;;10.98;;
73321;SDS011;61549;37.044;22.128;2023-03-21T13:33:02;15.95;;;12.13;;
73321;SDS011;61549;37.044;22.128;2023-03-21T13:35:34;18.45;;;13.30;;
73321;SDS011;61549;37.044;22.128;2023-03-21T13:38:16;19.77;;;13.90;;
73321;SDS011;61549;37.044;22.128;2023-03-21T13:40:59;18.67;;;13.35;;
73321;SDS011;61549;37.044;22.128;2023-03-21T13:59:17;19.92;;;14.20;;
73321;SDS011;61549;37.044;22.128;2023-03-21T14:02:00;20.35;;;13.90;;
73321;SDS011;61549;37.044;22.128;2023-03-21T14:04:43;19.80;;;13.35;;
73321;SDS011;61549;37.044;22.128;2023-03-21T14:07:20;19.63;;;14.07;;
73321;SDS011;61549;37.044;22.128;2023-03-21T14:09:58;19.67;;;13.75;;
73321;SDS011;61549;37.044;22.128;2023-03-21T14:12:37;20.38;;;14.75;;
73321;SDS011;61549;37.044;22.128;2023-03-21T14:15:07;29.63;;;20.13;;
73321;SDS011;61549;37.044;22.128;2023-03-21T14:17:55;28.98;;;20.67;;
73321;SDS011;61549;37.044;22.128;2023-03-21T14:20:27;20.50;;;15.60;;
73321;SDS011;61549;37.044;22.128;2023-03-21T14:22:55;19.95;;;13.07;;
73321;SDS011;61549;37.044;22.128;2023-03-21T14:25:22;15.43;;;12.10;;
73321;SDS011;61549;37.044;22.128;2023-03-21T14:27:53;17.15;;;12.68;;
73321;SDS011;61549;37.044;22.128;2023-03-21T14:30:29;16.58;;;13.43;;
73321;SDS011;61549;37.044;22.128;2023-03-21T14:33:07;18.58;;;14.82;;
73321;SDS011;61549;37.044;22.128;2023-03-21T14:35:56;15.73;;;11.05;;
73321;SDS011;61549;37.044;22.128;2023-03-21T14:38:25;14.50;;;11.93;;
73321;SDS011;61549;37.044;22.128;2023-03-21T14:40:56;17.42;;;14.35;;
73321;SDS011;61549;37.044;22.128;2023-03-21T14:43:23;18.17;;;14.93;;
73321;SDS011;61549;37.044;22.128;2023-03-21T14:45:50;19.23;;;14.70;;
73321;SDS011;61549;37.044;22.128;2023-03-21T14:48:18;16.02;;;11.68;;
73321;SDS011;61549;37.044;22.128;2023-03-21T14:50:52;19.80;;;14.30;;
73321;SDS011;61549;37.044;22.128;2023-03-21T14:53:28;22.02;;;15.35;;
73321;SDS011;61549;37.044;22.128;2023-03-21T14:55:57;21.35;;;15.15;;
73321;SDS011;61549;37.044;22.128;2023-03-21T14:58:26;20.63;;;15.48;;
73321;SDS011;61549;37.044;22.128;2023-03-21T15:00:55;21.63;;;15.52;;
73321;SDS011;61549;37.044;22.128;2023-03-21T15:03:25;22.35;;;14.00;;
73321;SDS011;61549;37.044;22.128;2023-03-21T15:05:52;22.10;;;15.68;;
73321;SDS011;61549;37.044;22.128;2023-03-21T15:08:21;28.80;;;21.58;;
73321;SDS011;61549;37.044;22.128;2023-03-21T15:10:55;24.27;;;18.08;;
73321;SDS011;61549;37.044;22.128;2023-03-21T15:13:27;24.13;;;17.05;;
73321;SDS011;61549;37.044;22.128;2023-03-21T15:15:58;39.28;;;23.30;;
73321;SDS011;61549;37.044;22.128;2023-03-21T15:18:27;24.55;;;16.25;;
73321;SDS011;61549;37.044;22.128;2023-03-21T15:21:06;29.00;;;18.92;;
73321;SDS011;61549;37.044;22.128;2023-03-21T15:23:43;30.30;;;20.38;;
73321;SDS011;61549;37.044;22.128;2023-03-21T15:26:13;30.17;;;21.08;;
73321;SDS011;61549;37.044;22.128;2023-03-21T15:28:41;31.33;;;21.35;;
73321;SDS011;61549;37.044;22.128;2023-03-21T15:31:16;28.73;;;20.00;;
73321;SDS011;61549;37.044;22.128;2023-03-21T15:33:48;30.63;;;20.42;;
73321;SDS011;61549;37.044;22.128;2023-03-21T15:36:20;26.35;;;20.13;;
73321;SDS011;61549;37.044;22.128;2023-03-21T15:38:53;33.97;;;22.17;;
73321;SDS011;61549;37.044;22.128;2023-03-21T15:43:46;36.47;;;23.35;;
73321;SDS011;61549;37.044;22.128;2023-03-21T15:46:30;26.38;;;18.83;;
73321;SDS011;61549;37.044;22.128;2023-03-21T15:51:41;33.28;;;23.67;;
73321;SDS011;61549;37.044;22.128;2023-03-21T15:54:13;32.97;;;23.30;;
73321;SDS011;61549;37.044;22.128;2023-03-21T15:56:41;28.65;;;20.80;;
73321;SDS011;61549;37.044;22.128;2023-03-21T15:59:13;29.23;;;21.27;;
73321;SDS011;61549;37.044;22.128;2023-03-21T16:01:46;30.40;;;20.98;;
73321;SDS011;61549;37.044;22.128;2023-03-21T16:04:13;34.78;;;23.23;;
73321;SDS011;61549;37.044;22.128;2023-03-21T16:09:23;30.05;;;21.33;;
73321;SDS011;61549;37.044;22.128;2023-03-21T16:11:50;32.70;;;21.98;;
73321;SDS011;61549;37.044;22.128;2023-03-21T16:14:17;31.17;;;22.60;;
73321;SDS011;61549;37.044;22.128;2023-03-21T16:16:44;35.67;;;24.90;;
73321;SDS011;61549;37.044;22.128;2023-03-21T16:19:10;33.00;;;22.30;;
73321;SDS011;61549;37.044;22.128;2023-03-21T16:21:37;34.40;;;22.98;;
73321;SDS011;61549;37.044;22.128;2023-03-21T16:24:03;28.98;;;20.75;;
73321;SDS011;61549;37.044;22.128;2023-03-21T16:26:35;25.90;;;18.63;;
73321;SDS011;61549;37.044;22.128;2023-03-21T16:29:03;24.75;;;17.85;;
73321;SDS011;61549;37.044;22.128;2023-03-21T16:31:31;26.38;;;18.10;;
73321;SDS011;61549;37.044;22.128;2023-03-21T16:33:58;28.73;;;18.75;;
73321;SDS011;61549;37.044;22.128;2023-03-21T16:36:27;23.73;;;17.50;;